Time;durP1;ratioP1;P1;durP2;ratioP2;P2;SDS_P1;SDS_P2;PMS_P1;PMS_P2;Temp;Humidity;BMP_temperature;BMP_pressure;BME280_temperature;BME280_humidity;BME280_pressure;Samples;Min_cycle;Max_cycle;Signal;HPM_P1;HPM_P2
2021/07/16 00:02:07;;;;;;;11.85;4.83;;;;;;;19.92;87.38;97790.47;1663704;85;20923;-75
2021/07/16 00:04:33;;;;;;;9.08;5.05;;;;;;;19.82;88.32;97796.41;1664415;85;20923;-74
2021/07/16 00:07:00;;;;;;;6.87;4.97;;;;;;;19.72;88.31;97789.44;1663744;85;20953;-75
2021/07/16 00:09:25;;;;;;;7.75;4.95;;;;;;;19.70;88.41;97775.83;1663525;85;20939;-74
2021/07/16 00:11:51;;;;;;;7.37;5.03;;;;;;;19.70;88.76;97780.75;1664769;85;20939;-74
2021/07/16 00:14:17;;;;;;;7.97;5.28;;;;;;;19.65;89.05;97778.25;1727039;82;22047;-74
2021/07/16 00:16:43;;;;;;;10.32;5.90;;;;;;;19.65;89.48;97776.05;1726720;83;20827;-75
2021/07/16 00:19:09;;;;;;;8.98;4.87;;;;;;;19.60;89.07;97763.36;1691206;84;21541;-75
2021/07/16 00:21:35;;;;;;;12.43;6.60;;;;;;;19.64;88.93;97752.46;1727280;82;20847;-74
2021/07/16 00:24:01;;;;;;;6.53;5.22;;;;;;;19.71;88.78;97741.12;1726914;83;21053;-75
2021/07/16 00:26:29;;;;;;;7.33;5.92;;;;;;;19.77;89.12;97737.56;1726867;83;21028;-74
2021/07/16 00:28:55;;;;;;;13.53;6.50;;;;;;;19.71;89.41;97731.50;1727199;82;20960;-75
2021/07/16 00:31:21;;;;;;;10.90;5.67;;;;;;;19.72;89.56;97732.30;1658903;85;21038;-75
2021/07/16 00:33:47;;;;;;;15.58;8.08;;;;;;;19.68;89.76;97727.28;1726864;83;21520;-74
2021/07/16 00:36:13;;;;;;;23.22;14.03;;;;;;;19.67;90.24;97734.72;1726648;83;20855;-75
2021/07/16 00:38:40;;;;;;;23.00;14.03;;;;;;;19.59;90.74;97737.59;1726995;83;21333;-75
2021/07/16 00:41:06;;;;;;;16.75;10.20;;;;;;;19.56;91.20;97724.50;1726973;82;21023;-74
2021/07/16 00:43:32;;;;;;;13.95;7.00;;;;;;;19.55;92.07;97731.14;1727014;83;21557;-74
2021/07/16 00:45:58;;;;;;;11.97;6.50;;;;;;;19.52;93.96;97731.27;1726758;83;20864;-74
2021/07/16 00:48:24;;;;;;;10.65;6.60;;;;;;;19.58;91.78;97715.39;1726834;83;20939;-74
2021/07/16 00:50:52;;;;;;;8.90;5.60;;;;;;;19.53;93.18;97716.95;1726836;83;21341;-74
2021/07/16 00:53:18;;;;;;;8.47;7.13;;;;;;;19.56;91.76;97718.45;1663697;85;20983;-74
2021/07/16 00:55:45;;;;;;;9.40;5.92;;;;;;;19.54;92.19;97723.47;1663077;85;20979;-74
2021/07/16 00:58:11;;;;;;;10.40;5.65;;;;;;;19.55;91.20;97729.77;1691520;84;21408;-74
2021/07/16 01:00:38;;;;;;;8.08;5.78;;;;;;;19.47;91.46;97731.48;1726855;82;20939;-74
2021/07/16 01:03:04;;;;;;;9.85;5.62;;;;;;;19.40;93.01;97729.92;1726768;83;21091;-74
2021/07/16 01:05:31;;;;;;;11.00;5.90;;;;;;;19.40;92.99;97729.92;1646790;86;20990;-74
2021/07/16 01:07:57;;;;;;;8.18;5.67;;;;;;;19.47;92.57;97730.69;1691777;83;20979;-74
2021/07/16 01:10:24;;;;;;;14.05;6.60;;;;;;;19.46;92.58;97735.39;1663536;85;21030;-74
2021/07/16 01:12:51;;;;;;;9.50;6.12;;;;;;;19.48;92.01;97732.29;1663659;85;20974;-74
2021/07/16 01:15:19;;;;;;;9.28;5.25;;;;;;;19.49;91.29;97739.41;1726966;82;21251;-74
2021/07/16 01:17:45;;;;;;;9.50;5.60;;;;;;;19.42;93.55;97739.98;1726738;83;20998;-74
2021/07/16 01:20:18;;;;;;;15.45;5.97;;;;;;;19.36;94.05;97745.47;1726686;83;21011;-74
2021/07/16 01:22:46;;;;;;;7.70;5.05;;;;;;;19.44;91.77;97754.97;1690712;84;21043;-73
2021/07/16 01:25:15;;;;;;;9.28;6.05;;;;;;;19.37;92.04;97767.09;1726681;82;21026;-73
2021/07/16 01:27:41;;;;;;;6.62;5.35;;;;;;;19.29;93.45;97765.84;1663727;85;21157;-74
2021/07/16 01:30:10;;;;;;;8.05;5.65;;;;;;;19.33;92.69;97769.52;1644426;86;21038;-75
2021/07/16 01:32:40;;;;;;;9.13;5.55;;;;;;;19.23;94.35;97779.02;1726792;82;20991;-74
2021/07/16 01:35:05;;;;;;;8.98;4.85;;;;;;;19.23;94.35;97779.02;1725338;83;20927;-75
2021/07/16 01:37:32;;;;;;;7.17;5.30;;;;;;;19.17;94.61;97783.12;1663731;85;21351;-74
2021/07/16 01:40:06;;;;;;;6.97;5.28;;;;;;;19.21;94.01;97785.39;1691792;84;21164;-74
2021/07/16 01:42:41;;;;;;;10.70;5.17;;;;;;;19.21;93.20;97781.85;1706721;83;20892;-73
2021/07/16 01:45:09;;;;;;;8.68;5.92;;;;;;;19.18;93.35;97795.70;1726534;83;21431;-74
2021/07/16 01:47:37;;;;;;;8.25;5.40;;;;;;;19.19;93.26;97811.03;1663764;85;20935;-73
2021/07/16 01:50:05;;;;;;;12.68;6.17;;;;;;;19.23;93.42;97818.84;1663759;86;20927;-74
2021/07/16 01:52:32;;;;;;;8.65;5.05;;;;;;;19.25;93.74;97813.80;1691668;84;21305;-73
2021/07/16 01:54:58;;;;;;;7.97;5.42;;;;;;;19.26;92.58;97811.28;1663729;86;21405;-73
2021/07/16 01:57:24;;;;;;;8.33;5.12;;;;;;;19.19;92.53;97809.66;1663707;85;20967;-73
2021/07/16 01:59:50;;;;;;;13.83;6.55;;;;;;;19.18;93.12;97812.75;1726898;83;20911;-73
2021/07/16 02:02:16;;;;;;;7.35;5.12;;;;;;;19.20;93.58;97817.33;1726725;83;20966;-73
2021/07/16 02:04:42;;;;;;;10.48;6.25;;;;;;;19.19;92.90;97818.48;1726773;83;21336;-73
2021/07/16 02:07:09;;;;;;;9.93;7.12;;;;;;;19.17;93.19;97822.94;1663667;85;21003;-73
2021/07/16 02:09:35;;;;;;;11.78;5.65;;;;;;;19.21;93.39;97822.47;1726760;82;20975;-73
2021/07/16 02:12:01;;;;;;;9.15;5.47;;;;;;;19.27;92.94;97825.23;1726704;83;20971;-73
2021/07/16 02:14:28;;;;;;;10.55;6.40;;;;;;;19.26;92.13;97831.88;1726815;83;21050;-73
2021/07/16 02:16:54;;;;;;;9.25;5.45;;;;;;;19.21;92.15;97834.83;1726753;83;21305;-74
2021/07/16 02:19:21;;;;;;;12.13;5.30;;;;;;;19.18;93.46;97833.35;1691782;84;21027;-73
2021/07/16 02:21:47;;;;;;;9.23;5.87;;;;;;;19.17;93.66;97831.18;1663657;85;20970;-73
2021/07/16 02:24:13;;;;;;;12.55;6.10;;;;;;;19.21;93.39;97827.97;1663869;85;20978;-74
2021/07/16 02:26:39;;;;;;;8.43;5.87;;;;;;;19.27;92.95;97825.23;1726481;83;21011;-73
2021/07/16 02:29:06;;;;;;;10.03;5.65;;;;;;;19.29;93.26;97819.40;1663975;86;21321;-73
2021/07/16 02:31:32;;;;;;;9.85;5.83;;;;;;;19.32;92.65;97821.48;1663743;85;20942;-73
2021/07/16 02:33:58;;;;;;;9.63;5.58;;;;;;;19.30;92.52;97816.88;1663721;86;20902;-73
2021/07/16 02:36:24;;;;;;;10.38;5.40;;;;;;;19.27;92.67;97816.20;1726614;83;21312;-73
2021/07/16 02:38:50;;;;;;;6.22;5.22;;;;;;;19.24;92.16;97815.52;1691731;84;20891;-73
2021/07/16 02:41:17;;;;;;;9.15;5.85;;;;;;;19.21;92.22;97821.09;1726557;83;21449;-73
2021/07/16 02:43:43;;;;;;;10.43;6.22;;;;;;;19.24;92.11;97819.06;1726926;83;21011;-73
2021/07/16 02:46:09;;;;;;;9.38;5.70;;;;;;;19.27;91.88;97817.57;1726571;82;21411;-73
2021/07/16 02:48:35;;;;;;;14.10;6.33;;;;;;;19.24;93.13;97808.66;1726748;83;20879;-73
2021/07/16 02:51:01;;;;;;;8.20;6.05;;;;;;;19.23;92.19;97807.85;1726738;83;20851;-73
2021/07/16 02:53:27;;;;;;;10.45;6.20;;;;;;;19.20;91.96;97809.09;1727430;83;21948;-74
2021/07/16 02:55:53;;;;;;;10.32;6.42;;;;;;;19.21;92.01;97810.69;1722090;82;20896;-73
2021/07/16 02:58:19;;;;;;;9.30;5.55;;;;;;;19.28;91.89;97799.95;1721507;82;21010;-73
2021/07/16 03:00:45;;;;;;;9.98;6.15;;;;;;;19.23;92.90;97796.86;1722032;82;20884;-73
2021/07/16 03:03:11;;;;;;;7.80;5.37;;;;;;;19.25;92.32;97803.38;1721736;82;20851;-73
2021/07/16 03:05:37;;;;;;;11.65;5.95;;;;;;;19.25;92.15;97802.81;1722009;83;21326;-73
2021/07/16 03:08:06;;;;;;;10.85;6.55;;;;;;;19.23;92.43;97804.27;1678052;84;20960;-73
2021/07/16 03:10:35;;;;;;;8.20;5.17;;;;;;;19.20;92.06;97805.77;1722144;82;20959;-73
2021/07/16 03:13:03;;;;;;;11.60;6.37;;;;;;;19.19;91.86;97803.37;1722155;82;20908;-73
2021/07/16 03:15:28;;;;;;;8.60;6.22;;;;;;;19.13;91.65;97795.91;1650328;86;21046;-73
2021/07/16 03:17:55;;;;;;;8.00;5.95;;;;;;;19.05;91.56;97804.47;1682207;84;21030;-73
2021/07/16 03:20:24;;;;;;;7.53;5.92;;;;;;;19.01;92.11;97800.02;1721949;82;20912;-73
2021/07/16 03:22:50;;;;;;;8.20;5.72;;;;;;;19.03;92.27;97799.10;1721674;82;20900;-73
2021/07/16 03:25:17;;;;;;;10.70;6.50;;;;;;;19.03;92.21;97797.16;1722028;82;20971;-74
2021/07/16 03:27:44;;;;;;;9.58;5.25;;;;;;;19.08;91.88;97787.91;1702344;83;21002;-73
2021/07/16 03:30:13;;;;;;;6.42;5.55;;;;;;;19.07;91.64;97791.80;1701621;83;21507;-74
2021/07/16 03:32:39;;;;;;;8.43;5.42;;;;;;;19.03;91.39;97784.80;1722160;82;20943;-73
2021/07/16 03:35:07;;;;;;;9.65;5.92;;;;;;;19.00;91.91;97791.55;1721976;82;21003;-73
2021/07/16 03:37:33;;;;;;;14.43;5.67;;;;;;;18.97;92.16;97786.18;1721709;82;20932;-74
2021/07/16 03:40:00;;;;;;;11.50;5.87;;;;;;;19.01;92.34;97783.55;1681499;83;21461;-73
2021/07/16 03:42:25;;;;;;;8.80;5.87;;;;;;;19.02;92.38;97784.58;1724547;83;21318;-73
2021/07/16 03:44:51;;;;;;;11.20;6.65;;;;;;;19.07;92.00;97789.05;1721912;83;20884;-74
2021/07/16 03:47:17;;;;;;;9.70;7.37;;;;;;;19.12;91.78;97788.81;1721592;83;20847;-74
2021/07/16 03:49:44;;;;;;;14.10;6.40;;;;;;;19.08;91.87;97785.16;1650094;86;20970;-73
2021/07/16 03:52:10;;;;;;;12.35;8.03;;;;;;;19.07;91.79;97782.19;1684789;83;20966;-73
2021/07/16 03:54:37;;;;;;;12.43;6.25;;;;;;;19.11;91.95;97782.52;1727742;82;21273;-73
2021/07/16 03:57:05;;;;;;;10.35;6.08;;;;;;;19.08;92.06;97785.97;1663248;85;21356;-73
2021/07/16 03:59:31;;;;;;;12.93;6.70;;;;;;;19.12;92.05;97782.75;1691431;84;21011;-74
2021/07/16 04:01:58;;;;;;;10.75;6.83;;;;;;;19.16;92.51;97791.13;1663624;85;20983;-74
2021/07/16 04:04:23;;;;;;;14.55;7.90;;;;;;;19.15;92.08;97786.78;1663713;85;21053;-75
2021/07/16 04:06:53;;;;;;;8.73;7.25;;;;;;;19.14;91.80;97796.14;1663376;85;22020;-74
2021/07/16 04:09:26;;;;;;;10.00;7.17;;;;;;;19.13;91.89;97793.16;1726562;83;21035;-74
2021/07/16 04:12:14;;;;;;;12.07;8.88;;;;;;;19.19;92.01;97797.87;1726524;83;20966;-73
2021/07/16 04:14:46;;;;;;;15.18;8.30;;;;;;;19.26;92.12;97799.49;1663356;86;21414;-74
2021/07/16 04:17:15;;;;;;;13.45;8.60;;;;;;;19.30;92.59;97806.69;1661997;85;20923;-74
2021/07/16 04:19:43;;;;;;;21.85;8.28;;;;;;;19.41;92.89;97809.24;1663197;86;21371;-73
2021/07/16 04:22:09;;;;;;;17.50;8.58;;;;;;;19.50;93.03;97807.76;1663244;85;20986;-74
2021/07/16 04:24:36;;;;;;;11.28;8.73;;;;;;;19.52;93.40;97808.78;1663538;86;21026;-74
2021/07/16 04:27:03;;;;;;;10.82;7.65;;;;;;;19.53;93.27;97815.30;1663252;85;20951;-73
2021/07/16 04:29:29;;;;;;;10.55;7.78;;;;;;;19.60;93.43;97816.14;1663771;85;20998;-74
2021/07/16 04:31:55;;;;;;;14.05;8.08;;;;;;;19.64;92.47;97815.67;1691340;84;20994;-74
2021/07/16 04:34:21;;;;;;;14.35;9.08;;;;;;;19.66;92.62;97820.28;1663897;85;20942;-74
2021/07/16 04:36:47;;;;;;;14.75;9.00;;;;;;;19.69;92.90;97814.88;1663438;85;20974;-73
2021/07/16 04:39:13;;;;;;;12.50;9.15;;;;;;;19.80;92.84;97817.95;1691850;84;21018;-74
2021/07/16 04:41:39;;;;;;;11.18;8.15;;;;;;;19.90;92.40;97825.73;1663672;85;20867;-74
2021/07/16 04:44:05;;;;;;;11.03;7.97;;;;;;;19.95;92.04;97818.64;1663729;86;21004;-74
2021/07/16 04:46:31;;;;;;;14.38;9.13;;;;;;;19.99;91.73;97822.28;1726771;82;20924;-74
2021/07/16 04:48:57;;;;;;;14.20;8.33;;;;;;;20.04;92.30;97821.27;1663535;86;21639;-74
2021/07/16 04:51:30;;;;;;;13.10;8.58;;;;;;;20.09;91.96;97826.53;1663390;85;20863;-74
2021/07/16 04:53:57;;;;;;;8.50;7.12;;;;;;;20.13;91.84;97831.56;1663663;85;21062;-73
2021/07/16 04:56:23;;;;;;;12.53;8.10;;;;;;;20.12;91.17;97837.41;1726132;83;21118;-73
2021/07/16 04:58:49;;;;;;;12.30;7.97;;;;;;;20.06;91.40;97827.78;1726768;83;20977;-73
2021/07/16 05:01:16;;;;;;;15.35;8.30;;;;;;;20.06;90.93;97825.83;1727084;83;21567;-73
2021/07/16 05:03:42;;;;;;;11.45;7.85;;;;;;;20.07;91.32;97817.01;1726608;83;20991;-73
2021/07/16 05:06:11;;;;;;;12.80;8.00;;;;;;;20.13;91.17;97827.43;1691744;84;20975;-73
2021/07/16 05:08:37;;;;;;;10.30;8.23;;;;;;;20.15;91.43;97835.33;1664373;85;21540;-74
2021/07/16 05:11:03;;;;;;;12.40;8.38;;;;;;;20.21;91.21;97836.70;1727131;82;20920;-74
2021/07/16 05:13:29;;;;;;;8.95;7.28;;;;;;;20.15;91.33;97838.08;1726664;82;21005;-74
2021/07/16 05:15:54;;;;;;;11.00;7.47;;;;;;;20.15;90.85;97838.88;1663358;86;20855;-74
2021/07/16 05:18:20;;;;;;;10.82;7.53;;;;;;;20.15;90.72;97840.83;1691344;84;20871;-74
2021/07/16 05:20:46;;;;;;;13.60;9.15;;;;;;;20.10;91.11;97841.09;1663979;85;21967;-74
2021/07/16 05:23:12;;;;;;;10.43;8.48;;;;;;;20.17;91.69;97846.23;1664173;85;20867;-74
2021/07/16 05:25:39;;;;;;;14.80;8.63;;;;;;;20.31;91.02;97849.97;1663937;85;20891;-74
2021/07/16 05:28:05;;;;;;;11.73;9.33;;;;;;;20.45;90.74;97851.81;1726696;82;20924;-74
2021/07/16 05:30:31;;;;;;;10.75;8.08;;;;;;;20.56;90.30;97852.12;1726891;83;20947;-74
2021/07/16 05:32:57;;;;;;;12.73;9.65;;;;;;;20.78;90.23;97854.34;1663797;85;21035;-74
2021/07/16 05:35:23;;;;;;;10.93;9.75;;;;;;;20.81;89.46;97859.72;1726672;83;20981;-74
2021/07/16 05:37:49;;;;;;;13.78;9.80;;;;;;;20.95;89.28;97864.25;1663622;85;21001;-74
2021/07/16 05:40:15;;;;;;;16.37;10.70;;;;;;;21.03;89.15;97875.69;1726869;83;21014;-73
2021/07/16 05:42:41;;;;;;;19.20;11.78;;;;;;;21.00;88.35;97879.70;1726592;83;20852;-74
2021/07/16 05:45:08;;;;;;;12.50;11.08;;;;;;;21.05;88.07;97877.51;1663635;86;21265;-73
2021/07/16 05:47:34;;;;;;;13.62;9.30;;;;;;;21.13;88.16;97884.82;1726348;82;20951;-74
2021/07/16 05:50:00;;;;;;;22.27;12.50;;;;;;;21.19;86.92;97886.72;1726981;83;20957;-74
2021/07/16 05:52:26;;;;;;;20.10;12.15;;;;;;;21.35;87.46;97886.78;1726690;82;20872;-74
2021/07/16 05:54:53;;;;;;;25.27;13.13;;;;;;;21.55;87.36;97885.76;1723673;82;20986;-73
2021/07/16 05:57:19;;;;;;;14.80;10.30;;;;;;;21.75;87.08;97881.13;1721694;83;21458;-73
2021/07/16 05:59:45;;;;;;;13.78;10.32;;;;;;;21.90;86.36;97880.91;1653596;85;21025;-74
2021/07/16 06:02:11;;;;;;;15.60;11.53;;;;;;;22.02;85.24;97880.80;1721364;83;21337;-74
2021/07/16 06:04:37;;;;;;;16.57;11.25;;;;;;;21.98;84.88;97889.58;1657102;85;20874;-73
2021/07/16 06:07:04;;;;;;;16.48;12.15;;;;;;;21.91;84.17;97887.44;1669506;85;20875;-74
2021/07/16 06:09:30;;;;;;;15.63;11.65;;;;;;;21.79;84.90;97888.92;1670881;84;21866;-74
2021/07/16 06:11:56;;;;;;;17.23;13.55;;;;;;;21.85;85.12;97889.44;1669422;85;21022;-74
2021/07/16 06:14:22;;;;;;;13.70;11.35;;;;;;;21.95;84.79;97893.83;1669682;84;21611;-74
2021/07/16 06:16:49;;;;;;;18.98;11.30;;;;;;;22.06;84.73;97895.48;1721569;83;21022;-73
2021/07/16 06:19:19;;;;;;;15.58;11.63;;;;;;;22.17;84.27;97891.63;1652952;86;21042;-74
2021/07/16 06:21:45;;;;;;;13.72;9.73;;;;;;;22.24;83.96;97900.06;1669243;85;21491;-73
2021/07/16 06:24:12;;;;;;;11.10;9.63;;;;;;;22.32;83.41;97893.55;1669545;86;21030;-74
2021/07/16 06:26:38;;;;;;;13.80;9.53;;;;;;;22.31;83.75;97891.95;1721834;82;21419;-73
2021/07/16 06:29:05;;;;;;;12.58;9.35;;;;;;;22.47;83.24;97894.10;1722095;82;21062;-73
2021/07/16 06:31:32;;;;;;;15.63;9.75;;;;;;;22.46;83.14;97894.44;1721720;83;20927;-74
2021/07/16 06:33:58;;;;;;;17.85;10.58;;;;;;;22.46;83.36;97895.81;1685540;84;21227;-74
2021/07/16 06:36:24;;;;;;;14.85;10.82;;;;;;;22.51;83.48;97894.96;1669976;85;21291;-73
2021/07/16 06:38:51;;;;;;;13.10;10.55;;;;;;;22.66;83.35;97894.70;1654672;85;20986;-73
2021/07/16 06:41:17;;;;;;;17.82;10.85;;;;;;;22.73;82.54;97897.62;1722054;82;20968;-72
2021/07/16 06:43:43;;;;;;;13.55;10.53;;;;;;;22.67;82.41;97896.87;1657786;85;20926;-74
2021/07/16 06:46:08;;;;;;;16.02;11.48;;;;;;;22.75;82.39;97895.87;1730193;82;21665;-72
2021/07/16 06:48:38;;;;;;;19.82;11.45;;;;;;;22.87;81.98;97896.33;1729890;82;21053;-74
2021/07/16 06:51:04;;;;;;;13.15;10.32;;;;;;;22.97;81.09;97898.50;1725899;83;21440;-72
2021/07/16 06:53:30;;;;;;;17.57;10.72;;;;;;;23.03;80.48;97894.29;1653997;86;20894;-73
2021/07/16 06:55:56;;;;;;;14.25;10.30;;;;;;;23.03;79.85;97899.81;1722004;82;20962;-73
2021/07/16 06:58:22;;;;;;;18.87;10.45;;;;;;;23.01;79.90;97889.13;1722068;82;21925;-74
2021/07/16 07:00:49;;;;;;;16.57;10.05;;;;;;;23.15;78.99;97894.12;1657931;85;20937;-73
2021/07/16 07:03:15;;;;;;;15.60;11.10;;;;;;;23.26;78.75;97891.00;1729895;82;20919;-74
2021/07/16 07:05:41;;;;;;;15.53;12.47;;;;;;;23.39;78.78;97888.85;1730265;83;20867;-74
2021/07/16 07:08:07;;;;;;;17.35;11.53;;;;;;;23.51;78.84;97892.84;1729907;83;21564;-75
2021/07/16 07:10:33;;;;;;;15.88;10.53;;;;;;;23.65;78.35;97900.60;1654442;85;21265;-74
2021/07/16 07:13:05;;;;;;;15.75;10.45;;;;;;;23.44;77.84;97892.70;1669512;85;20958;-74
2021/07/16 07:15:31;;;;;;;17.57;10.50;;;;;;;23.36;77.72;97888.22;1654721;85;20994;-73
2021/07/16 07:17:57;;;;;;;12.78;10.05;;;;;;;23.60;78.06;97887.10;1709278;83;21460;-75
2021/07/16 07:20:23;;;;;;;11.55;8.40;;;;;;;23.78;77.53;97887.41;1656479;85;20863;-73
2021/07/16 07:22:49;;;;;;;13.58;9.10;;;;;;;23.84;76.59;97887.28;1669491;85;21331;-73
2021/07/16 07:25:15;;;;;;;12.35;10.30;;;;;;;23.91;75.49;97886.82;1670047;84;21560;-73
2021/07/16 07:27:41;;;;;;;14.40;10.40;;;;;;;23.73;74.78;97894.03;1669768;84;20954;-73
2021/07/16 07:30:08;;;;;;;13.95;9.75;;;;;;;23.67;75.25;97887.23;1722269;82;21054;-73
2021/07/16 07:32:34;;;;;;;15.60;10.10;;;;;;;23.75;76.08;97889.50;1721617;83;20948;-73
2021/07/16 07:35:00;;;;;;;14.15;9.45;;;;;;;23.87;75.54;97885.98;1721950;83;21197;-73
2021/07/16 07:37:26;;;;;;;18.10;10.30;;;;;;;24.20;75.64;97894.20;1721691;83;20843;-73
2021/07/16 07:39:51;;;;;;;11.90;9.43;;;;;;;24.65;74.46;97886.36;1653210;85;20885;-73
2021/07/16 07:42:21;;;;;;;17.15;10.30;;;;;;;24.85;73.72;97888.39;1722203;82;21441;-74
2021/07/16 07:44:46;;;;;;;17.27;10.37;;;;;;;24.86;71.00;97884.44;1721997;83;20967;-73
2021/07/16 07:47:12;;;;;;;15.18;9.28;;;;;;;25.06;72.24;97883.73;1721309;83;21860;-74
2021/07/16 07:49:38;;;;;;;17.15;10.65;;;;;;;25.20;71.40;97880.31;1657886;85;20945;-74
2021/07/16 07:52:06;;;;;;;16.55;10.60;;;;;;;25.42;69.70;97885.50;1723537;83;20993;-73
2021/07/16 07:54:34;;;;;;;11.83;9.95;;;;;;;25.56;70.37;97887.05;1721824;82;20984;-73
2021/07/16 07:57:00;;;;;;;14.43;9.17;;;;;;;25.93;69.20;97885.61;1721923;83;20975;-74
2021/07/16 07:59:26;;;;;;;19.73;11.08;;;;;;;25.93;69.20;97885.61;1657438;85;21581;-74
2021/07/16 08:01:52;;;;;;;14.75;9.30;;;;;;;25.97;66.71;97887.02;1727831;83;20832;-74
2021/07/16 08:04:18;;;;;;;14.00;8.93;;;;;;;25.79;67.99;97895.98;1721986;83;21580;-74
2021/07/16 08:06:44;;;;;;;15.68;9.28;;;;;;;25.63;68.95;97901.55;1721832;83;20943;-73
2021/07/16 08:09:10;;;;;;;13.80;9.43;;;;;;;25.56;69.18;97905.87;1654827;86;21064;-73
2021/07/16 08:11:36;;;;;;;14.33;9.28;;;;;;;25.54;69.65;97899.88;1686337;83;21154;-73
2021/07/16 08:14:02;;;;;;;13.98;9.20;;;;;;;25.66;68.92;97911.91;1703813;83;20918;-74
2021/07/16 08:16:28;;;;;;;17.50;9.68;;;;;;;25.72;69.02;97910.38;1722028;82;21054;-74
2021/07/16 08:18:54;;;;;;;12.85;8.80;;;;;;;25.93;68.42;97909.20;1722071;83;20887;-73
2021/07/16 08:21:22;;;;;;;13.48;8.13;;;;;;;25.99;67.59;97916.59;1722246;82;20987;-73
2021/07/16 08:23:49;;;;;;;16.33;8.80;;;;;;;26.34;67.80;97914.67;1723099;82;21491;-73
2021/07/16 08:26:15;;;;;;;11.83;9.03;;;;;;;26.84;66.69;97913.02;1721571;83;20952;-73
2021/07/16 08:28:41;;;;;;;13.28;9.10;;;;;;;27.14;65.71;97909.19;1650104;85;21569;-74
2021/07/16 08:31:07;;;;;;;14.73;8.58;;;;;;;27.70;61.54;97916.92;1721621;83;20907;-73
2021/07/16 08:33:33;;;;;;;16.57;12.05;;;;;;;27.88;62.79;97915.55;1653775;85;21001;-73
2021/07/16 08:35:59;;;;;;;18.37;13.70;;;;;;;27.45;62.35;97925.19;1685268;85;22005;-74
2021/07/16 08:38:24;;;;;;;16.23;13.00;;;;;;;27.50;61.19;97921.20;1726663;83;20892;-73
2021/07/16 08:40:51;;;;;;;17.32;12.85;;;;;;;27.29;61.97;97926.13;1656772;85;20983;-74
2021/07/16 08:43:18;;;;;;;17.02;14.18;;;;;;;26.95;62.27;97931.92;1723907;82;21487;-73
2021/07/16 08:45:47;;;;;;;20.20;11.97;;;;;;;26.21;64.43;97927.27;1639583;86;21004;-74
2021/07/16 08:48:13;;;;;;;15.40;12.60;;;;;;;26.25;64.98;97922.55;1721050;82;21427;-75
2021/07/16 08:50:39;;;;;;;20.02;13.95;;;;;;;26.73;64.94;97921.08;1722633;82;21048;-75
2021/07/16 08:53:06;;;;;;;16.87;12.68;;;;;;;27.22;63.94;97908.82;1650444;85;20850;-75
2021/07/16 08:55:35;;;;;;;23.22;13.15;;;;;;;28.20;61.32;97919.73;1724173;83;21384;-74
2021/07/16 08:57:59;;;;;;;18.80;13.38;;;;;;;28.38;61.23;97919.74;1664011;85;21423;-74
2021/07/16 09:00:25;;;;;;;17.55;13.70;;;;;;;28.40;60.15;97918.73;1727055;82;21232;-75
2021/07/16 09:02:58;;;;;;;22.73;17.70;;;;;;;27.87;60.27;97913.95;1726910;82;20922;-74
2021/07/16 09:05:37;;;;;;;24.47;15.63;;;;;;;26.79;61.99;97913.37;1727000;82;21385;-74
2021/07/16 09:08:04;;;;;;;23.42;15.80;;;;;;;28.05;59.99;97918.14;1726569;82;20932;-75
2021/07/16 09:10:30;;;;;;;28.35;17.90;;;;;;;28.28;58.17;97913.53;1726879;83;21475;-74
2021/07/16 09:13:03;;;;;;;30.32;17.50;;;;;;;27.49;60.04;97914.84;1726717;83;21304;-75
2021/07/16 09:15:29;;;;;;;23.80;17.50;;;;;;;27.45;60.78;97912.66;1726800;82;21435;-74
2021/07/16 09:18:22;;;;;;;27.22;17.67;;;;;;;27.24;62.57;97909.81;1726660;82;20860;-74
2021/07/16 09:21:03;;;;;;;30.55;19.10;;;;;;;27.05;62.38;97910.15;1726963;82;20986;-73
2021/07/16 09:23:46;;;;;;;29.52;19.82;;;;;;;27.81;60.53;97914.94;1726587;82;21009;-73
2021/07/16 09:26:15;;;;;;;32.25;21.10;;;;;;;28.30;58.01;97911.98;1726916;82;21392;-73
2021/07/16 09:28:47;;;;;;;31.05;21.42;;;;;;;28.65;56.98;97906.14;1726021;82;21054;-74
2021/07/16 09:31:16;;;;;;;29.27;19.73;;;;;;;29.90;55.20;97906.94;1726768;83;20979;-75
2021/07/16 09:33:51;;;;;;;26.93;18.82;;;;;;;29.25;56.33;97912.13;1726745;82;21408;-74
2021/07/16 09:36:34;;;;;;;31.10;19.80;;;;;;;28.48;58.32;97910.56;1726937;82;21030;-73
2021/07/16 09:39:12;;;;;;;27.20;20.68;;;;;;;28.18;59.78;97915.13;1727103;82;21299;-73
2021/07/16 09:41:53;;;;;;;31.95;21.62;;;;;;;27.91;60.46;97916.13;1726928;82;20959;-74
2021/07/16 09:44:40;;;;;;;25.62;20.57;;;;;;;27.92;59.49;97907.97;1727141;82;21406;-74
2021/07/16 09:47:17;;;;;;;23.32;20.77;;;;;;;29.11;56.30;97903.81;1727001;82;21093;-74
2021/07/16 09:49:45;;;;;;;29.75;20.72;;;;;;;30.17;54.75;97900.98;1727142;82;20959;-75
2021/07/16 09:52:20;;;;;;;25.48;20.08;;;;;;;31.37;52.62;97896.67;1726746;83;21727;-74
2021/07/16 09:55:16;;;;;;;24.90;20.75;;;;;;;32.39;46.55;97900.30;1727447;82;21015;-75
2021/07/16 09:57:50;;;;;;;21.82;18.80;;;;;;;32.39;46.55;97900.30;1664131;85;20990;-75
2021/07/16 10:00:22;;;;;;;26.02;20.20;;;;;;;33.43;45.86;97899.89;1726868;82;21038;-75
2021/07/16 10:02:51;;;;;;;22.73;19.98;;;;;;;33.43;45.41;97896.29;1726509;82;20971;-75
2021/07/16 10:05:17;;;;;;;22.80;19.10;;;;;;;33.60;42.01;97893.07;1726817;83;21977;-75
2021/07/16 10:07:44;;;;;;;22.32;19.92;;;;;;;34.13;43.99;97897.25;1663547;86;21035;-74
2021/07/16 10:10:16;;;;;;;23.38;20.37;;;;;;;34.83;41.85;97895.20;1726507;83;21046;-75
2021/07/16 10:12:44;;;;;;;23.87;20.70;;;;;;;34.90;40.96;97902.69;1724901;83;21027;-75
2021/07/16 10:15:15;;;;;;;23.73;21.17;;;;;;;34.00;40.86;97902.77;1727071;83;21043;-75
2021/07/16 10:17:44;;;;;;;25.90;20.77;;;;;;;34.27;42.06;97900.30;1726607;82;21708;-73
2021/07/16 10:20:13;;;;;;;21.48;19.27;;;;;;;35.16;40.92;97900.73;1726776;83;21002;-74
2021/07/16 10:22:39;;;;;;;23.40;19.15;;;;;;;34.51;40.20;97912.95;1726563;82;21011;-75
2021/07/16 10:25:06;;;;;;;23.70;20.30;;;;;;;34.30;39.76;97904.44;1726806;83;21019;-74
2021/07/16 10:27:32;;;;;;;25.20;20.57;;;;;;;34.77;39.79;97909.62;1726737;82;20923;-74
2021/07/16 10:30:08;;;;;;;23.02;20.23;;;;;;;34.90;39.31;97905.50;1726940;82;20998;-75
2021/07/16 10:32:50;;;;;;;20.52;18.12;;;;;;;35.27;39.29;97904.80;1663591;85;21371;-75
2021/07/16 10:35:25;;;;;;;22.27;19.52;;;;;;;35.05;38.41;97915.13;1726820;82;20986;-75
2021/07/16 10:38:00;;;;;;;38.08;22.27;;;;;;;35.36;39.00;97911.80;1726553;83;20972;-75
2021/07/16 10:40:40;;;;;;;24.02;20.48;;;;;;;35.52;38.65;97911.11;1726817;83;21277;-76
2021/07/16 10:43:08;;;;;;;22.75;20.27;;;;;;;36.52;37.77;97909.94;1726741;83;21171;-76
2021/07/16 10:45:39;;;;;;;608.17;103.70;;;;;;;35.05;38.99;97910.28;1726690;83;20967;-75
2021/07/16 10:48:20;;;;;;;180.90;36.50;;;;;;;36.07;38.06;97910.41;1726304;82;20907;-76
2021/07/16 10:50:49;;;;;;;27.52;22.55;;;;;;;37.08;36.78;97907.73;1728838;82;20998;-76
2021/07/16 10:53:19;;;;;;;27.70;22.55;;;;;;;34.24;39.00;97910.41;1726691;83;20908;-76
2021/07/16 10:55:57;;;;;;;27.85;22.10;;;;;;;34.37;39.50;97906.28;1723691;83;21448;-76
2021/07/16 10:58:31;;;;;;;27.62;21.60;;;;;;;34.13;40.43;97901.47;1663506;86;20931;-75
2021/07/16 11:01:02;;;;;;;23.95;21.37;;;;;;;33.22;43.50;97904.52;1726652;83;21010;-75
2021/07/16 11:03:43;;;;;;;24.05;21.42;;;;;;;34.17;41.77;97907.77;1726301;82;21015;-74
2021/07/16 11:06:10;;;;;;;39.18;22.05;;;;;;;35.58;39.95;97902.91;1726848;83;20986;-75
2021/07/16 11:08:42;;;;;;;26.07;22.15;;;;;;;36.51;38.44;97906.33;1726741;82;21240;-74
2021/07/16 11:11:17;;;;;;;24.87;21.25;;;;;;;35.82;37.72;97909.00;1726777;82;21022;-75
2021/07/16 11:13:57;;;;;;;24.27;19.98;;;;;;;35.52;37.12;97912.52;1726590;83;21399;-75
2021/07/16 11:16:32;;;;;;;25.25;20.15;;;;;;;35.83;37.07;97903.53;1664000;86;20986;-75
2021/07/16 11:19:14;;;;;;;24.30;20.75;;;;;;;35.85;35.85;97905.27;1726871;82;20976;-74
2021/07/16 11:21:46;;;;;;;26.93;19.80;;;;;;;36.54;36.34;97905.41;1644129;86;21035;-76
2021/07/16 11:24:30;;;;;;;25.02;20.92;;;;;;;36.95;36.07;97900.75;1726956;82;21332;-76
2021/07/16 11:27:10;;;;;;;24.90;20.60;;;;;;;37.20;35.08;97905.47;1726329;83;21360;-74
2021/07/16 11:29:50;;;;;;;25.97;20.90;;;;;;;36.62;35.70;97908.14;1726663;83;21002;-75